createdAt,value
2018-05-19T00:00:08.545Z,12.23
2018-05-19T00:02:36.801Z,15.30
2018-05-19T00:05:05.099Z,12.07
2018-05-19T00:07:33.344Z,11.77
2018-05-19T00:10:02.385Z,9.03
2018-05-19T00:12:30.623Z,12.40
2018-05-19T00:14:59.651Z,8.20
2018-05-19T00:17:27.890Z,10.40
2018-05-19T00:19:56.144Z,13.47
2018-05-19T00:22:24.386Z,9.60
2018-05-19T00:24:52.633Z,11.63
2018-05-19T00:27:21.668Z,11.57
2018-05-19T00:29:50.828Z,11.37
2018-05-19T00:32:19.098Z,7.97
2018-05-19T00:34:47.332Z,12.40
2018-05-19T00:37:15.608Z,11.37
2018-05-19T00:39:44.612Z,9.30
2018-05-19T00:42:12.845Z,9.23
2018-05-19T00:44:42.068Z,5.47
2018-05-19T00:47:11.068Z,10.40
2018-05-19T00:49:39.348Z,10.00
2018-05-19T00:52:08.344Z,9.23
2018-05-19T00:54:49.347Z,10.10
2018-05-19T00:57:17.607Z,12.13
2018-05-19T00:59:45.901Z,8.90
2018-05-19T01:02:14.133Z,11.80
2018-05-19T01:04:42.374Z,9.97
2018-05-19T01:07:10.644Z,6.77
2018-05-19T01:09:38.889Z,6.33
2018-05-19T01:12:07.939Z,10.53
2018-05-19T01:14:36.189Z,6.57
2018-05-19T01:17:04.455Z,7.90
2018-05-19T01:19:33.463Z,8.43
2018-05-19T01:22:02.662Z,10.27
2018-05-19T01:24:30.924Z,11.10
2018-05-19T01:26:59.931Z,7.07
2018-05-19T01:29:28.968Z,9.70
2018-05-19T01:31:57.248Z,11.47
2018-05-19T01:34:25.494Z,10.07
2018-05-19T01:36:53.758Z,8.10
2018-05-19T01:39:22.762Z,6.73
2018-05-19T01:41:51.781Z,11.67
2018-05-19T01:44:20.029Z,9.90
2018-05-19T01:46:49.049Z,11.20
2018-05-19T01:49:17.302Z,11.63
2018-05-19T01:51:45.563Z,7.40
2018-05-19T01:54:13.807Z,6.87
2018-05-19T01:56:42.071Z,20.77
2018-05-19T01:59:10.323Z,11.43
2018-05-19T02:01:39.359Z,10.90
2018-05-19T02:04:07.600Z,8.50
2018-05-19T02:06:35.843Z,12.33
2018-05-19T02:09:06.876Z,11.30
2018-05-19T02:11:35.164Z,11.00
2018-05-19T02:14:03.400Z,10.10
2018-05-19T02:16:32.388Z,8.93
2018-05-19T02:19:01.415Z,10.03
2018-05-19T02:21:29.708Z,9.30
2018-05-19T02:23:57.948Z,10.20
2018-05-19T02:26:26.952Z,13.93
2018-05-19T02:28:55.989Z,12.50
2018-05-19T02:31:24.220Z,14.80
2018-05-19T02:33:52.469Z,13.30
2018-05-19T02:36:20.737Z,14.80
2018-05-19T02:38:49.930Z,9.70
2018-05-19T02:41:18.162Z,9.20
2018-05-19T02:43:47.179Z,9.27
2018-05-19T02:46:16.194Z,10.27
2018-05-19T02:48:44.441Z,8.00
2018-05-19T02:51:13.428Z,9.53
2018-05-19T02:53:41.677Z,10.57
2018-05-19T02:56:09.906Z,9.30
2018-05-19T02:58:38.209Z,11.00
2018-05-19T03:01:06.580Z,18.57
2018-05-19T03:03:34.733Z,12.43
2018-05-19T03:06:02.973Z,8.80
2018-05-19T03:08:31.216Z,7.60
2018-05-19T03:10:59.497Z,14.70
2018-05-19T03:13:27.783Z,10.03
2018-05-19T03:15:56.950Z,7.97
2018-05-19T03:18:25.205Z,8.83
2018-05-19T03:20:53.440Z,12.60
2018-05-19T03:23:21.716Z,12.33
2018-05-19T03:25:49.976Z,12.13
2018-05-19T03:28:18.992Z,10.57
2018-05-19T03:30:47.995Z,8.23
2018-05-19T03:33:16.264Z,13.93
2018-05-19T03:35:45.299Z,13.53
2018-05-19T03:38:13.542Z,17.17
2018-05-19T03:40:41.859Z,10.27
2018-05-19T03:43:10.120Z,11.97
2018-05-19T03:45:39.141Z,10.93
2018-05-19T03:48:07.385Z,9.97
2018-05-19T03:50:35.648Z,14.20
2018-05-19T03:53:03.981Z,11.23
2018-05-19T03:55:32.217Z,10.60
2018-05-19T03:58:13.320Z,10.27
2018-05-19T04:00:53.428Z,19.47
2018-05-19T04:03:21.677Z,10.50
2018-05-19T04:05:49.924Z,19.53
2018-05-19T04:08:18.197Z,16.03
2018-05-19T04:10:46.493Z,15.20
2018-05-19T04:13:14.736Z,12.23
2018-05-19T04:15:43.762Z,13.77
2018-05-19T04:18:12.000Z,10.40
2018-05-19T04:20:41.027Z,10.07
2018-05-19T04:23:10.023Z,14.97
2018-05-19T04:25:39.046Z,12.90
2018-05-19T04:28:07.276Z,14.97
2018-05-19T04:30:35.541Z,14.13
2018-05-19T04:33:03.838Z,10.93
2018-05-19T04:35:32.084Z,16.43
2018-05-19T04:38:00.325Z,15.47
2018-05-19T04:40:29.386Z,19.50
2018-05-19T04:42:57.633Z,19.17
2018-05-19T04:45:25.941Z,17.03
2018-05-19T04:47:55.014Z,15.93
2018-05-19T04:50:23.309Z,15.67
2018-05-19T04:52:51.577Z,18.47
2018-05-19T04:55:19.880Z,14.00
2018-05-19T04:57:48.097Z,14.93
2018-05-19T05:00:17.128Z,15.83
2018-05-19T05:02:46.416Z,13.87
2018-05-19T05:05:15.437Z,12.80
2018-05-19T05:07:43.688Z,11.23
2018-05-19T05:10:11.935Z,10.40
2018-05-19T05:12:40.180Z,12.40
2018-05-19T05:15:08.432Z,18.20
2018-05-19T05:17:36.711Z,15.07
2018-05-19T05:20:04.973Z,16.83
2018-05-19T05:22:33.243Z,13.90
2018-05-19T05:25:02.280Z,13.87
2018-05-19T05:27:30.550Z,18.00
2018-05-19T05:29:59.553Z,18.90
2018-05-19T05:32:27.861Z,20.90
2018-05-19T05:34:56.147Z,16.57
2018-05-19T05:37:24.387Z,17.60
2018-05-19T05:39:52.680Z,14.90
2018-05-19T05:42:20.944Z,14.20
2018-05-19T05:44:49.249Z,26.10
2018-05-19T05:47:17.528Z,15.07
2018-05-19T05:49:45.795Z,13.67
2018-05-19T05:52:14.811Z,18.77
2018-05-19T05:54:43.067Z,20.47
2018-05-19T05:57:12.109Z,17.27
2018-05-19T05:59:40.430Z,16.10
2018-05-19T06:02:08.706Z,24.00
2018-05-19T06:04:37.760Z,20.03
2018-05-19T06:07:06.022Z,22.53
2018-05-19T06:09:34.335Z,18.73
2018-05-19T06:12:02.628Z,15.97
2018-05-19T06:14:32.715Z,24.60
2018-05-19T06:17:01.217Z,13.77
2018-05-19T06:19:29.581Z,18.90
2018-05-19T06:21:58.738Z,21.37
2018-05-19T06:24:27.170Z,18.83
2018-05-19T06:26:55.548Z,18.83
2018-05-19T06:29:23.823Z,14.43
2018-05-19T06:31:52.119Z,15.93
2018-05-19T06:34:20.495Z,19.53
2018-05-19T06:36:48.778Z,19.13
2018-05-19T06:39:17.055Z,16.93
2018-05-19T06:41:45.317Z,17.87
2018-05-19T06:44:14.434Z,24.90
2018-05-19T06:46:42.712Z,20.03
2018-05-19T06:49:10.981Z,16.57
2018-05-19T06:51:39.240Z,15.97
2018-05-19T06:54:07.512Z,15.50
2018-05-19T06:56:35.773Z,18.60
2018-05-19T06:59:04.040Z,19.70
2018-05-19T07:01:32.729Z,18.77
2018-05-19T07:04:00.963Z,22.60
2018-05-19T07:06:29.227Z,22.23
2018-05-19T07:08:58.583Z,20.20
2018-05-19T07:11:26.828Z,21.40
2018-05-19T07:13:55.873Z,18.90
2018-05-19T07:16:24.098Z,22.70
2018-05-19T07:18:53.168Z,20.57
2018-05-19T07:21:21.715Z,22.43
2018-05-19T07:23:50.008Z,23.43
2018-05-19T07:26:18.280Z,20.77
2018-05-19T07:28:46.558Z,20.17
2018-05-19T07:31:14.828Z,27.93
2018-05-19T07:33:43.069Z,22.07
2018-05-19T07:36:11.396Z,20.40
2018-05-19T07:38:39.589Z,27.10
2018-05-19T07:41:08.475Z,29.23
2018-05-19T07:43:36.739Z,24.10
2018-05-19T07:46:04.992Z,29.10
2018-05-19T07:48:34.003Z,24.70
2018-05-19T07:51:02.268Z,39.07
2018-05-19T07:53:31.293Z,21.60
2018-05-19T07:55:59.533Z,31.33
2018-05-19T07:58:27.813Z,26.07
2018-05-19T08:00:56.348Z,22.43
2018-05-19T08:03:26.179Z,21.57
2018-05-19T08:05:54.428Z,29.47
2018-05-19T08:08:22.710Z,23.73
2018-05-19T08:10:51.733Z,23.63
2018-05-19T08:13:19.989Z,27.10
2018-05-19T08:15:48.501Z,24.90
2018-05-19T08:18:16.753Z,28.10
2018-05-19T08:20:45.032Z,26.00
2018-05-19T08:23:13.325Z,27.27
2018-05-19T08:25:41.568Z,25.40
2018-05-19T08:28:10.620Z,25.33
2018-05-19T08:30:38.874Z,26.83
2018-05-19T08:33:07.153Z,30.20
2018-05-19T08:35:35.453Z,28.97
2018-05-19T08:38:04.000Z,24.20
2018-05-19T08:40:32.243Z,23.77
2018-05-19T08:43:00.489Z,20.67
2018-05-19T08:45:28.769Z,17.73
2018-05-19T08:47:57.021Z,20.97
2018-05-19T08:50:25.343Z,19.27
2018-05-19T08:52:53.879Z,23.67
2018-05-19T08:55:23.648Z,26.17
2018-05-19T08:57:51.929Z,22.50
2018-05-19T09:00:20.615Z,28.20
2018-05-19T09:02:48.874Z,27.37
2018-05-19T09:05:17.902Z,23.70
2018-05-19T09:07:46.159Z,23.87
2018-05-19T09:10:14.778Z,19.20
2018-05-19T09:12:43.046Z,22.20
2018-05-19T09:15:11.318Z,19.90
2018-05-19T09:17:39.581Z,23.67
2018-05-19T09:20:08.586Z,19.80
2018-05-19T09:22:37.604Z,20.63
2018-05-19T09:25:05.873Z,23.57
2018-05-19T09:27:34.138Z,26.67
2018-05-19T09:30:03.160Z,27.73
2018-05-19T09:32:31.473Z,20.53
2018-05-19T09:34:59.741Z,19.17
2018-05-19T09:37:28.037Z,24.33
2018-05-19T09:39:56.298Z,25.20
2018-05-19T09:42:24.565Z,22.23
2018-05-19T09:44:52.800Z,22.03
2018-05-19T09:47:21.878Z,20.00
2018-05-19T09:49:50.113Z,49.90
2018-05-19T09:52:18.365Z,26.70
2018-05-19T09:54:47.400Z,21.63
2018-05-19T09:57:15.673Z,26.70
2018-05-19T09:59:43.956Z,24.40
2018-05-19T10:02:12.217Z,30.60
2018-05-19T10:04:41.261Z,22.20
2018-05-19T10:07:09.501Z,23.93
2018-05-19T10:09:37.816Z,26.33
2018-05-19T10:12:06.076Z,28.70
2018-05-19T10:14:34.333Z,25.13
2018-05-19T10:17:02.613Z,24.80
2018-05-19T10:19:31.649Z,20.73
2018-05-19T10:21:59.940Z,19.50
2018-05-19T10:24:28.222Z,18.30
2018-05-19T10:26:56.509Z,23.53
2018-05-19T10:29:24.783Z,23.67
2018-05-19T10:31:53.064Z,20.47
2018-05-19T10:34:21.304Z,18.63
2018-05-19T10:36:49.593Z,21.20
2018-05-19T10:39:17.849Z,21.43
2018-05-19T10:41:46.915Z,20.53
2018-05-19T10:44:15.166Z,18.90
2018-05-19T10:46:43.457Z,21.77
2018-05-19T10:49:11.739Z,21.13
2018-05-19T10:51:40.079Z,22.67
2018-05-19T10:54:08.284Z,18.80
2018-05-19T10:56:36.548Z,19.77
2018-05-19T10:59:05.264Z,21.27
2018-05-19T11:01:33.528Z,23.90
2018-05-19T11:04:02.429Z,19.60
2018-05-19T11:06:31.716Z,24.73
2018-05-19T11:09:00.738Z,31.63
2018-05-19T11:11:29.212Z,24.53
2018-05-19T11:13:58.661Z,22.77
2018-05-19T11:16:28.720Z,17.93
2018-05-19T11:18:57.060Z,20.20
2018-05-19T11:21:25.413Z,19.67
2018-05-19T11:23:53.695Z,25.43
2018-05-19T11:26:22.760Z,17.90
2018-05-19T11:28:51.808Z,19.00
2018-05-19T11:31:20.876Z,20.60
2018-05-19T11:33:50.023Z,25.40
2018-05-19T11:36:18.300Z,18.67
2018-05-19T11:38:46.572Z,18.33
2018-05-19T11:41:14.880Z,18.20
2018-05-19T11:43:43.125Z,18.83
2018-05-19T11:46:11.382Z,26.80
2018-05-19T11:48:39.633Z,19.37
2018-05-19T11:51:08.649Z,18.97
2018-05-19T11:53:37.695Z,19.43
2018-05-19T11:56:05.945Z,24.97
2018-05-19T11:58:34.242Z,21.63
2018-05-19T12:01:02.490Z,19.23
2018-05-19T12:03:30.761Z,18.40
2018-05-19T12:06:00.708Z,22.00
2018-05-19T12:08:28.990Z,25.90
2018-05-19T12:10:57.239Z,20.93
2018-05-19T12:13:26.300Z,20.87
2018-05-19T12:15:54.563Z,18.80
2018-05-19T12:18:22.851Z,20.40
2018-05-19T12:20:51.083Z,23.83
2018-05-19T12:23:20.108Z,18.17
2018-05-19T12:25:48.376Z,26.60
2018-05-19T12:28:16.644Z,21.17
2018-05-19T12:30:45.703Z,22.00
2018-05-19T12:33:13.976Z,27.43
2018-05-19T12:35:42.238Z,23.07
2018-05-19T12:38:10.503Z,22.70
2018-05-19T12:40:39.534Z,25.67
2018-05-19T12:43:07.796Z,24.00
2018-05-19T12:45:36.067Z,20.80
2018-05-19T12:48:04.312Z,22.30
2018-05-19T12:50:33.352Z,24.53
2018-05-19T12:53:01.619Z,23.73
2018-05-19T12:55:31.113Z,23.77
2018-05-19T12:57:59.378Z,24.37
2018-05-19T13:00:28.401Z,20.57
2018-05-19T13:02:56.673Z,23.20
2018-05-19T13:05:24.920Z,19.17
2018-05-19T13:07:53.205Z,17.70
2018-05-19T13:10:21.464Z,17.53
2018-05-19T13:12:49.705Z,21.33
2018-05-19T13:15:17.968Z,21.33
2018-05-19T13:17:46.994Z,18.13
2018-05-19T13:20:15.237Z,22.83
2018-05-19T13:22:44.247Z,21.40
2018-05-19T13:25:12.520Z,23.43
2018-05-19T13:27:40.763Z,17.73
2018-05-19T13:30:09.046Z,23.10
2018-05-19T13:32:37.296Z,19.20
2018-05-19T13:35:05.573Z,23.60
2018-05-19T13:37:33.856Z,17.70
2018-05-19T13:40:02.102Z,23.77
2018-05-19T13:42:31.143Z,20.40
2018-05-19T13:44:59.408Z,21.13
2018-05-19T13:47:27.670Z,20.87
2018-05-19T13:49:55.913Z,23.93
2018-05-19T13:52:24.173Z,19.83
2018-05-19T13:54:52.439Z,22.10
2018-05-19T13:57:20.722Z,19.33
2018-05-19T13:59:48.963Z,19.57
2018-05-19T14:02:17.972Z,21.97
2018-05-19T14:04:46.228Z,18.00
2018-05-19T14:07:15.283Z,21.27
2018-05-19T14:09:43.524Z,19.80
2018-05-19T14:12:11.791Z,24.70
2018-05-19T14:14:40.053Z,24.40
2018-05-19T14:17:08.309Z,25.70
2018-05-19T14:19:36.572Z,21.43
2018-05-19T14:22:04.826Z,25.40
2018-05-19T14:24:33.859Z,21.83
2018-05-19T14:27:02.113Z,21.57
2018-05-19T14:29:30.388Z,21.97
2018-05-19T14:31:58.668Z,20.03
2018-05-19T14:34:26.944Z,19.67
2018-05-19T14:36:55.962Z,18.00
2018-05-19T14:39:24.241Z,27.03
2018-05-19T14:41:52.477Z,19.30
2018-05-19T14:44:20.736Z,17.77
2018-05-19T14:46:49.009Z,19.57
2018-05-19T14:49:17.249Z,20.10
2018-05-19T14:51:46.285Z,18.10
2018-05-19T14:54:14.596Z,17.60
2018-05-19T14:56:43.653Z,17.73
2018-05-19T14:59:11.921Z,19.33
2018-05-19T15:01:40.199Z,19.00
2018-05-19T15:04:08.468Z,19.80
2018-05-19T15:06:36.733Z,16.87
2018-05-19T15:09:05.767Z,22.93
2018-05-19T15:11:34.010Z,17.10
2018-05-19T15:14:03.046Z,17.40
2018-05-19T15:16:31.301Z,22.90
2018-05-19T15:19:00.349Z,15.00
2018-05-19T15:21:28.600Z,19.27
2018-05-19T15:23:56.884Z,14.17
2018-05-19T15:26:25.130Z,19.67
2018-05-19T15:28:54.145Z,16.70
2018-05-19T15:31:22.402Z,16.57
2018-05-19T15:33:50.662Z,15.90
2018-05-19T15:36:19.030Z,21.17
2018-05-19T15:38:47.226Z,15.47
2018-05-19T15:41:15.505Z,24.93
2018-05-19T15:43:43.763Z,18.00
2018-05-19T15:46:12.072Z,20.73
2018-05-19T15:48:40.338Z,18.47
2018-05-19T15:51:08.616Z,17.00
2018-05-19T15:53:36.896Z,20.50
2018-05-19T15:56:05.170Z,21.77
2018-05-19T15:58:33.411Z,15.57
2018-05-19T16:01:01.736Z,18.97
2018-05-19T16:03:29.976Z,23.60
2018-05-19T16:05:58.228Z,23.07
2018-05-19T16:08:27.298Z,15.93
2018-05-19T16:10:55.536Z,17.30
2018-05-19T16:13:23.795Z,15.60
2018-05-19T16:15:52.083Z,19.70
2018-05-19T16:18:21.111Z,17.70
2018-05-19T16:20:49.392Z,18.77
2018-05-19T16:23:17.638Z,18.50
2018-05-19T16:25:46.675Z,15.47
2018-05-19T16:28:14.925Z,16.70
2018-05-19T16:30:43.206Z,16.53
2018-05-19T16:33:12.221Z,15.90
2018-05-19T16:35:40.498Z,17.10
2018-05-19T16:38:08.749Z,20.97
2018-05-19T16:40:37.862Z,15.40
2018-05-19T16:43:06.134Z,15.80
2018-05-19T16:45:35.164Z,16.50
2018-05-19T16:48:03.402Z,16.53
2018-05-19T16:50:32.425Z,18.47
2018-05-19T16:53:00.696Z,19.23
2018-05-19T16:55:28.940Z,16.60
2018-05-19T16:57:58.181Z,14.17
2018-05-19T17:00:27.198Z,23.17
2018-05-19T17:02:55.462Z,19.50
2018-05-19T17:05:24.051Z,18.20
2018-05-19T17:07:52.308Z,23.93
2018-05-19T17:10:20.568Z,16.07
2018-05-19T17:12:48.843Z,16.57
2018-05-19T17:15:18.089Z,14.30
2018-05-19T17:17:46.372Z,19.00
2018-05-19T17:20:14.637Z,15.93
2018-05-19T17:22:43.672Z,23.30
2018-05-19T17:25:11.924Z,16.77
2018-05-19T17:27:40.970Z,15.47
2018-05-19T17:30:09.221Z,16.47
2018-05-19T17:32:37.480Z,17.07
2018-05-19T17:35:06.495Z,20.57
2018-05-19T17:37:34.953Z,19.97
2018-05-19T17:40:04.068Z,14.20
2018-05-19T17:42:32.363Z,15.13
2018-05-19T17:45:00.610Z,15.23
2018-05-19T17:47:29.702Z,15.27
2018-05-19T17:49:57.935Z,14.70
2018-05-19T17:52:26.209Z,16.37
2018-05-19T17:54:55.572Z,15.77
2018-05-19T17:57:24.932Z,19.33
2018-05-19T17:59:53.401Z,17.60
2018-05-19T18:02:21.666Z,19.50
2018-05-19T18:04:50.883Z,19.27
2018-05-19T18:07:19.907Z,19.23
2018-05-19T18:09:48.170Z,22.97
2018-05-19T18:12:16.429Z,17.70
2018-05-19T18:14:44.696Z,23.43
2018-05-19T18:17:13.729Z,21.23
2018-05-19T18:19:41.994Z,21.10
2018-05-19T18:22:11.143Z,21.57
2018-05-19T18:24:39.428Z,18.03
2018-05-19T18:27:07.715Z,18.73
2018-05-19T18:29:36.032Z,25.60
2018-05-19T18:32:04.227Z,20.73
2018-05-19T18:34:32.489Z,19.33
2018-05-19T18:37:01.492Z,22.50
2018-05-19T18:39:29.760Z,25.50
2018-05-19T18:41:58.779Z,18.40
2018-05-19T18:44:27.060Z,20.70
2018-05-19T18:46:55.327Z,19.50
2018-05-19T18:49:23.603Z,23.23
2018-05-19T18:51:51.887Z,21.70
2018-05-19T18:54:20.904Z,19.77
2018-05-19T18:56:49.153Z,18.40
2018-05-19T18:59:18.210Z,17.60
2018-05-19T19:01:47.203Z,20.33
2018-05-19T19:04:15.473Z,18.57
2018-05-19T19:06:43.744Z,17.77
2018-05-19T19:09:12.395Z,19.90
2018-05-19T19:11:40.708Z,18.73
2018-05-19T19:14:08.957Z,20.47
2018-05-19T19:16:37.995Z,24.57
2018-05-19T19:19:06.241Z,38.63
2018-05-19T19:21:35.632Z,22.77
2018-05-19T19:24:03.897Z,18.73
2018-05-19T19:26:32.164Z,21.90
2018-05-19T19:29:00.439Z,19.13
2018-05-19T19:31:28.683Z,21.20
2018-05-19T19:33:56.965Z,20.40
2018-05-19T19:36:25.283Z,18.57
2018-05-19T19:38:53.540Z,21.10
2018-05-19T19:41:21.819Z,18.80
2018-05-19T19:43:50.094Z,20.97
2018-05-19T19:46:18.416Z,20.80
2018-05-19T19:48:46.713Z,20.40
2018-05-19T19:51:14.964Z,19.73
2018-05-19T19:53:43.225Z,23.77
2018-05-19T19:56:11.497Z,19.20
2018-05-19T19:58:39.757Z,22.30
2018-05-19T20:01:08.792Z,27.10
2018-05-19T20:03:37.074Z,19.43
2018-05-19T20:06:05.350Z,25.83
2018-05-19T20:08:33.588Z,21.17
2018-05-19T20:11:02.604Z,21.57
2018-05-19T20:13:30.880Z,20.50
2018-05-19T20:16:00.027Z,22.73
2018-05-19T20:18:28.290Z,24.43
2018-05-19T20:20:56.552Z,20.67
2018-05-19T20:23:24.833Z,23.73
2018-05-19T20:25:53.113Z,19.77
2018-05-19T20:28:21.384Z,24.13
2018-05-19T20:30:49.676Z,22.70
2018-05-19T20:33:17.967Z,21.17
2018-05-19T20:35:46.216Z,18.70
2018-05-19T20:38:15.242Z,17.40
2018-05-19T20:40:43.544Z,24.30
2018-05-19T20:43:11.778Z,22.10
2018-05-19T20:45:40.814Z,23.20
2018-05-19T20:48:09.087Z,23.17
2018-05-19T20:50:37.359Z,19.40
2018-05-19T20:53:05.673Z,27.30
2018-05-19T20:55:33.930Z,24.40
2018-05-19T20:58:02.204Z,25.57
2018-05-19T21:00:30.470Z,18.43
2018-05-19T21:02:59.684Z,17.93
2018-05-19T21:05:27.977Z,22.80
2018-05-19T21:07:56.228Z,20.43
2018-05-19T21:10:24.504Z,25.10
2018-05-19T21:12:53.539Z,20.40
2018-05-19T21:15:21.808Z,18.50
2018-05-19T21:17:50.093Z,20.63
2018-05-19T21:20:18.354Z,20.30
2018-05-19T21:22:46.632Z,23.77
2018-05-19T21:25:14.902Z,26.93
2018-05-19T21:27:44.659Z,28.07
2018-05-19T21:30:13.024Z,32.33
2018-05-19T21:32:41.487Z,27.40
2018-05-19T21:35:09.817Z,28.43
2018-05-19T21:37:38.076Z,24.57
2018-05-19T21:40:06.351Z,22.90
2018-05-19T21:42:34.594Z,22.53
2018-05-19T21:45:03.635Z,23.27
2018-05-19T21:47:31.973Z,22.83
2018-05-19T21:50:00.210Z,22.43
2018-05-19T21:52:28.453Z,20.40
2018-05-19T21:54:56.755Z,17.30
2018-05-19T21:57:26.159Z,20.17
2018-05-19T21:59:54.305Z,22.83
2018-05-19T22:02:23.340Z,25.20
2018-05-19T22:04:51.596Z,19.53
2018-05-19T22:07:19.885Z,21.07
2018-05-19T22:09:48.126Z,21.87
2018-05-19T22:12:17.933Z,24.40
2018-05-19T22:14:46.193Z,25.60
2018-05-19T22:17:14.454Z,18.37
2018-05-19T22:19:42.702Z,18.03
2018-05-19T22:22:11.735Z,19.53
2018-05-19T22:24:40.004Z,20.13
2018-05-19T22:27:08.262Z,19.03
2018-05-19T22:29:37.312Z,25.30
2018-05-19T22:32:05.594Z,25.57
2018-05-19T22:34:33.858Z,18.97
2018-05-19T22:37:02.110Z,23.37
2018-05-19T22:39:30.576Z,20.40
2018-05-19T22:41:58.828Z,26.97
2018-05-19T22:44:27.092Z,24.67
2018-05-19T22:46:55.428Z,21.80
2018-05-19T22:49:24.466Z,19.90
2018-05-19T22:51:52.735Z,20.43
2018-05-19T22:54:21.014Z,23.20
2018-05-19T22:56:49.296Z,20.57
2018-05-19T22:59:17.544Z,24.80
2018-05-19T23:01:46.575Z,21.63
2018-05-19T23:04:14.839Z,19.50
2018-05-19T23:06:43.870Z,22.60
2018-05-19T23:09:12.136Z,21.27
2018-05-19T23:11:40.396Z,25.53
2018-05-19T23:14:08.697Z,22.33
2018-05-19T23:16:36.961Z,19.00
2018-05-19T23:19:05.256Z,24.47
2018-05-19T23:21:33.499Z,19.47
2018-05-19T23:24:02.544Z,22.83
2018-05-19T23:26:30.785Z,25.90
2018-05-19T23:28:59.817Z,25.60
2018-05-19T23:31:28.066Z,23.80
2018-05-19T23:33:57.105Z,20.23
2018-05-19T23:36:25.383Z,19.60
2018-05-19T23:38:53.648Z,22.63
2018-05-19T23:41:21.920Z,23.37
2018-05-19T23:43:50.177Z,19.40
2018-05-19T23:46:19.211Z,21.80
2018-05-19T23:48:47.487Z,21.53
2018-05-19T23:51:15.782Z,22.30
2018-05-19T23:53:44.049Z,24.90
2018-05-19T23:56:12.306Z,24.10
2018-05-19T23:58:41.347Z,19.13
